Impacts TAF Board
For situational awareness. Not to be used for flight planning purposes.
IDs:

KGEG - Spokane Intl, WA, US

Issued at 1801 UTC 17 Nov 2019
Updated at 1951 UTC 17 Nov 2019
Potential Impact None Slight Moderate High
Time1914Z 17/20Z 17/21Z 17/22Z 17/23Z 18/00Z 18/01Z 18/02Z 18/03Z 18/04Z 18/05Z 18/06Z 18/07Z 18/08Z>>
Type OBS PRVL PRVL PRVL PRVL PRVL PRVL PRVL PRVL PRVL PRVL PRVL PRVL PRVL
VIS 8 >6 >6 >6 >6 >6 >6 >6 >6 >6 >6 >6 >6 >6
CIG 100 40 40 40 200 200 200 200 200 200 200 200 200 200
Cover BKN OVC OVC OVC BKN BKN BKN BKN BKN BKN BKN BKN BKN BKN
FltCat VFR VFR VFR VFR VFR VFR VFR VFR VFR VFR VFR VFR VFR VFR
WX -- -- -- -- -- -- -- -- -- -- -- -- -- --
WDir 180 210 210 210 200 200 200 200 200 200 200 200 200 200
WSpd 12 8 8 8 6 6 6 6 6 6 6 6 6 6
WGst -- -- -- -- -- -- -- -- -- -- -- -- -- --
Raw TAF
KGEG 171801Z 1718/1818 20009KT 6SM -RA BR SCT015 OVC035
  TEMPO 1718/1720 BKN015
  FM172000 21008KT P6SM SCT020 OVC040
  FM172300 20006KT P6SM SCT020 BKN200
  FM180900 19005KT 1/2SM FG OVC002


Raw METAR
KGEG 171914Z 18012KT 8SM SCT006 BKN100 BKN140 08/06 A3006 RMK AO2 RAE02 P0000 T00780061 $
KGEG 171853Z 17012KT 6SM -RA BR BKN006 OVC085 07/06 A3008 RMK AO2 RAB00E17B30 SLP194 P0002 T00720056 $
KGEG 171829Z 18010KT 8SM SCT006 BKN050 OVC090 07/06 A3008 RMK AO2 RAB00E17 P0001 T00720056 $
KGEG 171753Z 18010KT 7SM SCT005 BKN012 OVC080 07/05 A3009 RMK AO2 RAE34 SLP201 P0004 60036 T00670050 10067 20056 58005 $
KGEG 171736Z 15012KT 7SM BKN012 BKN038 OVC080 07/04 A3009 RMK AO2 RAE34 P0004 T00670044 $
KGEG 171721Z 17006KT 4SM -RA BR SCT020 BKN033 OVC075 06/05 A3010 RMK AO2 P0004 T00610050 $
KGEG 171653Z 17007KT 3SM RA BR BKN016 OVC020 06/04 A3011 RMK AO2 TWR VIS 4 SLP206 P0010 T00610044 $

METAR Board
Radar Display
Forecast Discussion
For situational awareness. Not to be used for flight planning purposes.